KRRL

Merrill Municipal Airport

Merrill, Wisconsin, USA
METAR KRRL 190635Z AUTO 00000KT 10SM CLR M05/M06 A2974 RMK AO2 T10531062
Observed Flight Rules
Jan-19 @ 06:35 UTC (34 minutes ago) Visual Flight Rules
Wind Visibility Clouds
Calm 10 miles
  • Clear skies
Temperatures Readings
Current -5°C / 23°F
Dewpoint -6°C / 21°F
Humidity 93%
Altimeter 29.74" Hg
Pressure 1007 hPa
Elevation 401
METAR KRRL 190635Z AUTO 00000KT 10SM CLR M05/M06 A2974 RMK AO2 T10531062
Observed Flight Rules
Jan-19 @ 06:35 UTC
(34 minutes ago)
VFR
Wind Visibility
Calm 10 miles
Clouds
  • Clear skies
Temperature Dewpoint
-5°C / 23°F -6°C / 21°F
Humidity Altimeter Pressure
93% 29.74" Hg 1007 hPa